Time,TemperatureF,DewpointF,PressureIn,WindDirection,WindDirectionDegrees,WindSpeedMPH,WindSpeedGustMPH,Humidity,HourlyPrecipIn,Conditions,Clouds,dailyrainin,SoftwareType,DateUTC
2013-05-19 00:01:00,65.8,52.9,29.98,SE,128,1.0,1.0,63,0.00,,,0.00,Wunderground v.1.15,2013-05-19 04:01:00,
2013-05-19 00:03:00,65.8,52.9,29.98,SE,127,1.0,2.0,63,0.00,,,0.00,Wunderground v.1.15,2013-05-19 04:03:00,
2013-05-19 00:07:00,65.7,52.8,29.98,ESE,117,1.0,1.0,63,0.00,,,0.00,Wunderground v.1.15,2013-05-19 04:07:00,
2013-05-19 00:13:00,65.7,53.2,29.98,SE,138,1.0,3.0,64,0.00,,,0.00,Wunderground v.1.15,2013-05-19 04:13:00,
2013-05-19 00:18:00,65.7,53.6,29.98,ESE,120,2.0,4.0,65,0.00,,,0.00,Wunderground v.1.15,2013-05-19 04:18:00,
2013-05-19 00:25:00,66.0,54.3,29.98,ENE,63,2.0,4.0,66,0.00,,,0.00,Wunderground v.1.15,2013-05-19 04:25:00,
2013-05-19 00:31:00,66.4,55.1,29.98,East,90,2.0,5.0,67,0.00,,,0.00,Wunderground v.1.15,2013-05-19 04:31:00,
2013-05-19 00:37:00,66.8,55.9,29.98,SE,127,3.0,8.0,68,0.00,,,0.00,Wunderground v.1.15,2013-05-19 04:37:00,
2013-05-19 00:42:00,66.9,56.4,29.98,North,354,3.0,6.0,69,0.00,,,0.00,Wunderground v.1.15,2013-05-19 04:42:00,
2013-05-19 00:48:00,66.9,56.4,29.98,SE,141,3.0,3.0,69,0.00,,,0.00,Wunderground v.1.15,2013-05-19 04:48:00,
2013-05-19 00:53:00,66.8,56.7,29.98,East,79,3.0,4.0,70,0.00,,,0.00,Wunderground v.1.15,2013-05-19 04:53:00,
2013-05-19 00:59:00,66.7,57.0,29.98,SE,125,3.0,6.0,71,0.00,,,0.00,Wunderground v.1.15,2013-05-19 04:59:00,
2013-05-19 01:05:00,66.6,57.3,29.98,SSE,166,2.0,6.0,72,0.00,,,0.00,Wunderground v.1.15,2013-05-19 05:05:00,
2013-05-19 01:10:00,66.6,57.7,29.98,SE,129,2.0,4.0,73,0.00,,,0.00,Wunderground v.1.15,2013-05-19 05:10:00,
2013-05-19 01:17:00,66.7,58.1,29.98,WNW,295,3.0,4.0,74,0.00,,,0.00,Wunderground v.1.15,2013-05-19 05:17:00,
2013-05-19 01:22:00,66.6,58.4,29.98,SE,131,3.0,4.0,75,0.00,,,0.00,Wunderground v.1.15,2013-05-19 05:22:00,
2013-05-19 01:27:00,66.7,58.9,29.98,ESE,110,3.0,7.0,76,0.00,,,0.00,Wunderground v.1.15,2013-05-19 05:27:00,
2013-05-19 01:33:00,66.7,58.9,29.98,SE,124,3.0,7.0,76,0.00,,,0.00,Wunderground v.1.15,2013-05-19 05:33:00,
2013-05-19 01:39:00,66.6,59.2,29.98,East,96,3.0,3.0,77,0.00,,,0.00,Wunderground v.1.15,2013-05-19 05:39:00,
2013-05-19 01:45:00,66.6,59.2,29.97,ESE,110,3.0,4.0,77,0.00,,,0.00,Wunderground v.1.15,2013-05-19 05:45:00,
2013-05-19 01:50:00,66.6,59.5,29.97,SE,132,3.0,3.0,78,0.00,,,0.00,Wunderground v.1.15,2013-05-19 05:50:00,
2013-05-19 01:55:00,66.6,59.5,29.97,ESE,103,3.0,4.0,78,0.00,,,0.00,Wunderground v.1.15,2013-05-19 05:55:00,
2013-05-19 02:00:00,66.6,59.9,29.97,East,80,2.0,3.0,79,0.00,,,0.00,Wunderground v.1.15,2013-05-19 06:00:00,
2013-05-19 02:07:00,66.6,59.9,29.97,SE,125,3.0,3.0,79,0.00,,,0.00,Wunderground v.1.15,2013-05-19 06:07:00,
2013-05-19 02:12:00,66.5,60.1,29.97,SSE,153,3.0,4.0,80,0.00,,,0.00,Wunderground v.1.15,2013-05-19 06:12:00,
2013-05-19 02:18:00,66.4,60.0,29.97,East,90,2.0,2.0,80,0.00,,,0.00,Wunderground v.1.15,2013-05-19 06:18:00,
2013-05-19 02:24:00,66.3,59.9,29.97,SE,134,2.0,6.0,80,0.00,,,0.00,Wunderground v.1.15,2013-05-19 06:24:00,
2013-05-19 02:30:00,66.2,60.2,29.97,SE,138,2.0,6.0,81,0.00,,,0.00,Wunderground v.1.15,2013-05-19 06:30:00,
2013-05-19 02:37:00,66.2,60.2,29.97,SE,132,2.0,6.0,81,0.00,,,0.00,Wunderground v.1.15,2013-05-19 06:37:00,
2013-05-19 02:43:00,66.0,60.3,29.97,East,95,2.0,3.0,82,0.00,,,0.00,Wunderground v.1.15,2013-05-19 06:43:00,
2013-05-19 02:48:00,66.0,60.3,29.97,SE,136,3.0,4.0,82,0.00,,,0.00,Wunderground v.1.15,2013-05-19 06:48:00,
2013-05-19 02:53:00,66.0,60.3,29.97,SSE,158,3.0,5.0,82,0.00,,,0.00,Wunderground v.1.15,2013-05-19 06:53:00,
2013-05-19 02:59:00,65.9,60.2,29.97,SE,125,3.0,4.0,82,0.00,,,0.00,Wunderground v.1.15,2013-05-19 06:59:00,
2013-05-19 03:05:00,65.8,60.2,29.97,SE,140,2.0,4.0,82,0.00,,,0.00,Wunderground v.1.15,2013-05-19 07:05:00,
2013-05-19 03:10:00,65.7,60.4,29.97,SE,141,3.0,4.0,83,0.00,,,0.00,Wunderground v.1.15,2013-05-19 07:10:00,
2013-05-19 03:15:00,65.6,60.3,29.97,SE,128,3.0,4.0,83,0.00,,,0.00,Wunderground v.1.15,2013-05-19 07:15:00,
2013-05-19 03:20:00,65.5,60.2,29.97,ESE,110,3.0,5.0,83,0.00,,,0.00,Wunderground v.1.15,2013-05-19 07:20:00,
2013-05-19 03:26:00,65.5,60.2,29.96,East,98,4.0,5.0,83,0.00,,,0.00,Wunderground v.1.15,2013-05-19 07:26:00,
2013-05-19 03:32:00,65.3,60.0,29.96,ESE,118,3.0,5.0,83,0.00,,,0.00,Wunderground v.1.15,2013-05-19 07:32:00,
2013-05-19 03:38:00,65.3,60.3,29.96,SSE,148,3.0,4.0,84,0.00,,,0.00,Wunderground v.1.15,2013-05-19 07:38:00,
2013-05-19 03:44:00,65.2,60.2,29.97,SE,127,3.0,4.0,84,0.00,,,0.00,Wunderground v.1.15,2013-05-19 07:44:00,
2013-05-19 03:50:00,65.0,60.0,29.97,East,93,2.0,3.0,84,0.00,,,0.00,Wunderground v.1.15,2013-05-19 07:50:00,
2013-05-19 03:56:00,64.9,59.9,29.97,East,97,2.0,4.0,84,0.00,,,0.00,Wunderground v.1.15,2013-05-19 07:56:00,
2013-05-19 04:02:00,64.7,60.1,29.97,WNW,294,2.0,3.0,85,0.00,,,0.00,Wunderground v.1.15,2013-05-19 08:02:00,
2013-05-19 04:07:00,64.6,60.0,29.96,SE,134,3.0,5.0,85,0.00,,,0.00,Wunderground v.1.15,2013-05-19 08:07:00,
2013-05-19 04:13:00,64.5,59.9,29.96,East,101,3.0,5.0,85,0.00,,,0.00,Wunderground v.1.15,2013-05-19 08:13:00,
2013-05-19 04:18:00,64.5,59.9,29.96,East,89,3.0,3.0,85,0.00,,,0.00,Wunderground v.1.15,2013-05-19 08:18:00,
2013-05-19 04:25:00,64.3,59.7,29.97,SSW,212,3.0,6.0,85,0.00,,,0.00,Wunderground v.1.15,2013-05-19 08:25:00,
2013-05-19 04:30:00,64.3,60.0,29.96,SE,128,4.0,8.0,86,0.00,,,0.00,Wunderground v.1.15,2013-05-19 08:30:00,
2013-05-19 04:35:00,64.1,59.8,29.97,ESE,111,3.0,8.0,86,0.00,,,0.00,Wunderground v.1.15,2013-05-19 08:35:00,
2013-05-19 04:41:00,64.0,59.7,29.97,SSW,211,3.0,9.0,86,0.00,,,0.00,Wunderground v.1.15,2013-05-19 08:41:00,
2013-05-19 04:47:00,63.9,59.6,29.97,SSE,158,4.0,4.0,86,0.00,,,0.00,Wunderground v.1.15,2013-05-19 08:47:00,
2013-05-19 04:52:00,63.8,59.9,29.97,SSE,155,4.0,6.0,87,0.00,,,0.00,Wunderground v.1.15,2013-05-19 08:52:00,
2013-05-19 04:58:00,63.6,59.7,29.98,SE,129,3.0,5.0,87,0.00,,,0.00,Wunderground v.1.15,2013-05-19 08:58:00,
2013-05-19 05:03:00,63.5,59.6,29.98,SSE,158,3.0,5.0,87,0.00,,,0.00,Wunderground v.1.15,2013-05-19 09:03:00,
2013-05-19 05:10:00,63.4,59.5,29.97,ESE,113,4.0,5.0,87,0.00,,,0.00,Wunderground v.1.15,2013-05-19 09:10:00,
2013-05-19 05:16:00,63.3,59.7,29.98,SSE,151,4.0,6.0,88,0.00,,,0.00,Wunderground v.1.15,2013-05-19 09:16:00,
2013-05-19 05:21:00,63.2,59.6,29.98,ESE,117,3.0,6.0,88,0.00,,,0.00,Wunderground v.1.15,2013-05-19 09:21:00,
2013-05-19 05:27:00,63.1,59.5,29.99,ESE,109,3.0,6.0,88,0.00,,,0.00,Wunderground v.1.15,2013-05-19 09:27:00,
2013-05-19 05:33:00,63.0,59.4,29.99,East,91,3.0,4.0,88,0.00,,,0.00,Wunderground v.1.15,2013-05-19 09:33:00,
2013-05-19 05:38:00,63.0,59.4,29.99,SSW,210,3.0,3.0,88,0.00,,,0.00,Wunderground v.1.15,2013-05-19 09:38:00,
2013-05-19 05:43:00,63.0,59.4,29.99,SE,128,3.0,6.0,88,0.00,,,0.00,Wunderground v.1.15,2013-05-19 09:43:00,
2013-05-19 05:48:00,63.0,59.4,29.99,SE,127,3.0,4.0,88,0.00,,,0.00,Wunderground v.1.15,2013-05-19 09:48:00,
2013-05-19 05:53:00,62.9,59.3,29.99,East,97,3.0,4.0,88,0.00,,,0.00,Wunderground v.1.15,2013-05-19 09:53:00,
2013-05-19 06:00:00,62.8,59.2,30.00,SE,140,3.0,4.0,88,0.00,,,0.00,Wunderground v.1.15,2013-05-19 10:00:00,
2013-05-19 06:07:00,62.7,59.4,30.00,East,84,3.0,4.0,89,0.00,,,0.00,Wunderground v.1.15,2013-05-19 10:07:00,
2013-05-19 06:12:00,62.6,59.3,30.00,SE,124,2.0,3.0,89,0.00,,,0.00,Wunderground v.1.15,2013-05-19 10:12:00,
2013-05-19 06:17:00,62.5,59.2,30.00,ESE,107,2.0,2.0,89,0.00,,,0.00,Wunderground v.1.15,2013-05-19 10:17:00,
2013-05-19 06:23:00,62.5,59.2,30.00,ENE,62,3.0,4.0,89,0.00,,,0.00,Wunderground v.1.15,2013-05-19 10:23:00,
2013-05-19 06:29:00,62.4,59.1,30.00,ESE,104,3.0,3.0,89,0.00,,,0.00,Wunderground v.1.15,2013-05-19 10:29:00,
2013-05-19 06:34:00,62.4,59.1,30.00,South,177,3.0,6.0,89,0.00,,,0.00,Wunderground v.1.15,2013-05-19 10:34:00,
2013-05-19 06:39:00,62.4,59.1,30.00,ESE,117,3.0,5.0,89,0.00,,,0.00,Wunderground v.1.15,2013-05-19 10:39:00,
2013-05-19 06:44:00,62.4,59.1,30.01,ESE,117,3.0,5.0,89,0.00,,,0.00,Wunderground v.1.15,2013-05-19 10:44:00,
2013-05-19 06:50:00,62.4,59.1,30.01,East,95,3.0,4.0,89,0.00,,,0.00,Wunderground v.1.15,2013-05-19 10:50:00,
2013-05-19 06:55:00,62.4,59.1,30.01,SSE,163,3.0,4.0,89,0.00,,,0.00,Wunderground v.1.15,2013-05-19 10:55:00,
2013-05-19 07:00:00,62.4,59.1,30.01,SSE,167,3.0,3.0,89,0.00,,,0.00,Wunderground v.1.15,2013-05-19 11:00:00,
2013-05-19 07:07:00,62.4,59.1,30.01,SE,125,3.0,6.0,89,0.00,,,0.00,Wunderground v.1.15,2013-05-19 11:07:00,
2013-05-19 07:12:00,62.4,59.1,30.01,East,101,3.0,6.0,89,0.00,,,0.00,Wunderground v.1.15,2013-05-19 11:12:00,
2013-05-19 07:17:00,62.4,59.1,30.01,SSE,163,2.0,3.0,89,0.00,,,0.00,Wunderground v.1.15,2013-05-19 11:17:00,
2013-05-19 07:23:00,62.4,59.1,30.01,ESE,103,2.0,7.0,89,0.00,,,0.00,Wunderground v.1.15,2013-05-19 11:23:00,
2013-05-19 07:29:00,62.5,59.2,30.02,SE,128,2.0,5.0,89,0.00,,,0.00,Wunderground v.1.15,2013-05-19 11:29:00,
2013-05-19 07:34:00,62.6,59.3,30.02,SE,129,2.0,5.0,89,0.00,,,0.00,Wunderground v.1.15,2013-05-19 11:34:00,
2013-05-19 07:39:00,62.8,59.5,30.02,ESE,110,2.0,3.0,89,0.00,,,0.00,Wunderground v.1.15,2013-05-19 11:39:00,
2013-05-19 07:44:00,62.9,59.6,30.02,SE,129,1.0,4.0,89,0.00,,,0.00,Wunderground v.1.15,2013-05-19 11:44:00,
2013-05-19 07:50:00,63.0,59.4,30.02,ENE,70,3.0,6.0,88,0.00,,,0.00,Wunderground v.1.15,2013-05-19 11:50:00,
2013-05-19 07:57:00,63.1,59.5,30.02,SSE,150,4.0,4.0,88,0.00,,,0.00,Wunderground v.1.15,2013-05-19 11:57:00,
2013-05-19 08:03:00,63.1,59.5,30.02,ESE,110,4.0,8.0,88,0.00,,,0.00,Wunderground v.1.15,2013-05-19 12:03:00,
2013-05-19 08:10:00,63.5,59.9,30.02,SE,124,3.0,3.0,88,0.00,,,0.00,Wunderground v.1.15,2013-05-19 12:10:00,
2013-05-19 08:17:00,64.1,60.2,30.02,ESE,116,3.0,6.0,87,0.00,,,0.00,Wunderground v.1.15,2013-05-19 12:17:00,
2013-05-19 08:22:00,64.6,60.6,30.02,SE,135,4.0,7.0,87,0.00,,,0.00,Wunderground v.1.15,2013-05-19 12:22:00,
2013-05-19 08:28:00,65.0,60.4,30.02,ESE,107,4.0,5.0,85,0.00,,,0.00,Wunderground v.1.15,2013-05-19 12:28:00,
2013-05-19 08:34:00,64.7,60.1,30.02,SE,135,4.0,6.0,85,0.00,,,0.00,Wunderground v.1.15,2013-05-19 12:34:00,
2013-05-19 08:39:00,64.5,60.2,30.01,North,10,4.0,9.0,86,0.00,,,0.00,Wunderground v.1.15,2013-05-19 12:39:00,
2013-05-19 08:45:00,64.6,60.3,30.01,ENE,60,5.0,9.0,86,0.00,,,0.00,Wunderground v.1.15,2013-05-19 12:45:00,
2013-05-19 08:50:00,64.7,60.4,30.01,South,179,5.0,5.0,86,0.00,,,0.00,Wunderground v.1.15,2013-05-19 12:50:00,
2013-05-19 08:57:00,65.1,60.5,30.01,East,90,5.0,5.0,85,0.00,,,0.00,Wunderground v.1.15,2013-05-19 12:57:00,
2013-05-19 09:04:00,65.6,61.0,30.01,SSE,148,4.0,8.0,85,0.00,,,0.00,Wunderground v.1.15,2013-05-19 13:04:00,
2013-05-19 09:09:00,65.8,60.8,30.01,SE,140,4.0,4.0,84,0.00,,,0.00,Wunderground v.1.15,2013-05-19 13:09:00,
2013-05-19 09:14:00,66.4,61.4,30.01,North,360,4.0,4.0,84,0.00,,,0.00,Wunderground v.1.15,2013-05-19 13:14:00,
2013-05-19 09:20:00,67.1,61.8,30.00,SE,125,3.0,6.0,83,0.00,,,0.00,Wunderground v.1.15,2013-05-19 13:20:00,
2013-05-19 09:25:00,67.7,62.0,30.00,SE,139,3.0,6.0,82,0.00,,,0.00,Wunderground v.1.15,2013-05-19 13:25:00,
2013-05-19 09:31:00,68.6,62.2,30.00,ESE,111,3.0,9.0,80,0.00,,,0.00,Wunderground v.1.15,2013-05-19 13:31:00,
2013-05-19 09:36:00,68.6,62.2,30.00,East,91,4.0,9.0,80,0.00,,,0.00,Wunderground v.1.15,2013-05-19 13:36:00,
2013-05-19 09:41:00,69.2,62.4,30.00,SE,133,4.0,7.0,79,0.00,,,0.00,Wunderground v.1.15,2013-05-19 13:41:00,
2013-05-19 09:47:00,69.9,62.4,30.00,SE,142,3.0,7.0,77,0.00,,,0.00,Wunderground v.1.15,2013-05-19 13:47:00,
2013-05-19 09:54:00,70.6,63.0,29.99,SE,141,3.0,4.0,77,0.00,,,0.00,Wunderground v.1.15,2013-05-19 13:54:00,
2013-05-19 10:00:00,71.2,63.2,29.99,West,269,3.0,4.0,76,0.00,,,0.00,Wunderground v.1.15,2013-05-19 14:00:00,
2013-05-19 10:05:00,71.3,63.0,29.99,East,84,4.0,9.0,75,0.00,,,0.00,Wunderground v.1.15,2013-05-19 14:05:00,
2013-05-19 10:11:00,72.0,63.3,29.99,NNW,328,4.0,5.0,74,0.00,,,0.00,Wunderground v.1.15,2013-05-19 14:11:00,
2013-05-19 10:16:00,72.3,63.5,29.99,South,170,3.0,5.0,74,0.00,,,0.00,Wunderground v.1.15,2013-05-19 14:16:00,
2013-05-19 10:24:00,73.1,63.5,29.99,SW,222,3.0,7.0,72,0.00,,,0.00,Wunderground v.1.15,2013-05-19 14:24:00,
2013-05-19 10:29:00,72.9,64.1,29.99,SE,135,3.0,3.0,74,0.00,,,0.00,Wunderground v.1.15,2013-05-19 14:29:00,
2013-05-19 10:36:00,73.4,64.2,29.98,NE,43,3.0,3.0,73,0.00,,,0.00,Wunderground v.1.15,2013-05-19 14:36:00,
2013-05-19 10:42:00,73.8,64.2,29.99,SSE,149,3.0,3.0,72,0.00,,,0.00,Wunderground v.1.15,2013-05-19 14:42:00,
2013-05-19 10:47:00,74.6,64.6,29.99,SE,127,2.0,5.0,71,0.00,,,0.00,Wunderground v.1.15,2013-05-19 14:47:00,
2013-05-19 10:52:00,74.8,64.4,29.99,NE,54,3.0,7.0,70,0.00,,,0.00,Wunderground v.1.15,2013-05-19 14:52:00,
2013-05-19 10:58:00,75.0,64.1,29.99,SE,135,3.0,4.0,69,0.00,,,0.00,Wunderground v.1.15,2013-05-19 14:58:00,
2013-05-19 11:03:00,75.1,64.6,29.98,ESE,120,3.0,6.0,70,0.00,,,0.00,Wunderground v.1.15,2013-05-19 15:03:00,
2013-05-19 11:09:00,75.0,64.5,29.98,North,6,3.0,5.0,70,0.00,,,0.00,Wunderground v.1.15,2013-05-19 15:09:00,
2013-05-19 11:14:00,75.8,64.9,29.98,SE,131,3.0,5.0,69,0.00,,,0.00,Wunderground v.1.15,2013-05-19 15:14:00,
2013-05-19 11:21:00,76.4,65.5,29.97,SSE,156,3.0,3.0,69,0.00,,,0.00,Wunderground v.1.15,2013-05-19 15:21:00,
2013-05-19 11:27:00,76.9,64.7,29.97,WNW,294,3.0,8.0,66,0.00,,,0.00,Wunderground v.1.15,2013-05-19 15:27:00,
2013-05-19 11:32:00,77.5,65.2,29.97,East,98,3.0,7.0,66,0.00,,,0.00,Wunderground v.1.15,2013-05-19 15:32:00,
2013-05-19 11:39:00,77.4,65.6,29.97,NW,326,3.0,3.0,67,0.00,,,0.00,Wunderground v.1.15,2013-05-19 15:39:00,
2013-05-19 11:46:00,76.9,65.1,29.96,ESE,122,3.0,5.0,67,0.00,,,0.00,Wunderground v.1.15,2013-05-19 15:46:00,
2013-05-19 11:52:00,77.5,65.2,29.96,ESE,108,3.0,3.0,66,0.00,,,0.00,Wunderground v.1.15,2013-05-19 15:52:00,
2013-05-19 11:58:00,78.3,66.0,29.96,SSE,148,2.0,7.0,66,0.00,,,0.00,Wunderground v.1.15,2013-05-19 15:58:00,
2013-05-19 12:04:00,77.9,64.3,29.95,SE,127,4.0,7.0,63,0.00,,,0.00,Wunderground v.1.15,2013-05-19 16:04:00,
2013-05-19 12:09:00,77.5,64.8,29.95,ESE,119,5.0,6.0,65,0.00,,,0.00,Wunderground v.1.15,2013-05-19 16:09:00,
2013-05-19 12:15:00,77.4,64.7,29.95,NNE,18,4.0,6.0,65,0.00,,,0.00,Wunderground v.1.15,2013-05-19 16:15:00,
2013-05-19 12:21:00,78.0,65.3,29.95,SE,136,3.0,4.0,65,0.00,,,0.00,Wunderground v.1.15,2013-05-19 16:21:00,
2013-05-19 12:27:00,78.2,65.0,29.95,East,84,3.0,4.0,64,0.00,,,0.00,Wunderground v.1.15,2013-05-19 16:27:00,
2013-05-19 12:34:00,78.1,64.9,29.95,SSE,158,5.0,5.0,64,0.00,,,0.00,Wunderground v.1.15,2013-05-19 16:34:00,
2013-05-19 12:39:00,79.0,65.3,29.95,WNW,301,4.0,5.0,63,0.00,,,0.00,Wunderground v.1.15,2013-05-19 16:39:00,
2013-05-19 12:45:00,79.2,64.1,29.95,ENE,71,3.0,5.0,60,0.00,,,0.00,Wunderground v.1.15,2013-05-19 16:45:00,
2013-05-19 12:51:00,79.4,64.3,29.96,ESE,121,3.0,4.0,60,0.00,,,0.00,Wunderground v.1.15,2013-05-19 16:51:00,
2013-05-19 12:57:00,79.4,64.3,29.95,WSW,239,2.0,4.0,60,0.00,,,0.00,Wunderground v.1.15,2013-05-19 16:57:00,
2013-05-19 13:03:00,80.0,64.9,29.96,NNW,348,2.0,6.0,60,0.00,,,0.00,Wunderground v.1.15,2013-05-19 17:03:00,
2013-05-19 13:08:00,80.3,64.7,29.96,NW,318,2.0,2.0,59,0.00,,,0.00,Wunderground v.1.15,2013-05-19 17:08:00,
2013-05-19 13:13:00,80.8,65.1,29.96,East,91,2.0,3.0,59,0.00,,,0.00,Wunderground v.1.15,2013-05-19 17:13:00,
2013-05-19 13:18:00,80.1,64.5,29.96,ESE,121,2.0,4.0,59,0.00,,,0.00,Wunderground v.1.15,2013-05-19 17:18:00,
2013-05-19 13:23:00,79.9,63.8,29.96,SSW,200,2.0,4.0,58,0.00,,,0.00,Wunderground v.1.15,2013-05-19 17:23:00,
2013-05-19 13:29:00,79.8,64.2,29.95,ESE,122,2.0,6.0,59,0.00,,,0.00,Wunderground v.1.15,2013-05-19 17:29:00,
2013-05-19 13:37:00,79.9,64.8,29.95,East,82,3.0,3.0,60,0.00,,,0.00,Wunderground v.1.15,2013-05-19 17:37:00,
2013-05-19 13:42:00,80.1,64.5,29.95,West,262,2.0,5.0,59,0.00,,,0.00,Wunderground v.1.15,2013-05-19 17:42:00,
2013-05-19 13:48:00,79.8,64.2,29.95,West,281,2.0,2.0,59,0.00,,,0.00,Wunderground v.1.15,2013-05-19 17:48:00,
2013-05-19 13:53:00,80.7,64.1,29.94,ESE,107,2.0,2.0,57,0.00,,,0.00,Wunderground v.1.15,2013-05-19 17:53:00,
2013-05-19 13:59:00,81.4,63.7,29.93,SSE,167,1.0,4.0,55,0.00,,,0.00,Wunderground v.1.15,2013-05-19 17:59:00,
2013-05-19 14:05:00,82.2,63.9,29.93,East,94,2.0,4.0,54,0.00,,,0.00,Wunderground v.1.15,2013-05-19 18:05:00,
2013-05-19 14:11:00,81.9,64.1,29.93,South,188,3.0,8.0,55,0.00,,,0.00,Wunderground v.1.15,2013-05-19 18:11:00,
2013-05-19 14:17:00,81.2,64.0,29.92,SE,132,3.0,8.0,56,0.00,,,0.00,Wunderground v.1.15,2013-05-19 18:17:00,
2013-05-19 14:22:00,81.2,64.5,29.92,ESE,108,4.0,7.0,57,0.00,,,0.00,Wunderground v.1.15,2013-05-19 18:22:00,
2013-05-19 14:30:00,81.0,63.8,29.92,SE,145,5.0,5.0,56,0.00,,,0.00,Wunderground v.1.15,2013-05-19 18:30:00,
2013-05-19 14:35:00,81.7,64.5,29.91,SW,214,5.0,5.0,56,0.00,,,0.00,Wunderground v.1.15,2013-05-19 18:35:00,
2013-05-19 14:41:00,82.9,65.1,29.91,SE,146,3.0,4.0,55,0.00,,,0.00,Wunderground v.1.15,2013-05-19 18:41:00,
2013-05-19 14:47:00,82.6,64.3,29.91,East,93,2.0,2.0,54,0.00,,,0.00,Wunderground v.1.15,2013-05-19 18:47:00,
2013-05-19 14:53:00,82.9,64.5,29.90,South,185,2.0,6.0,54,0.00,,,0.00,Wunderground v.1.15,2013-05-19 18:53:00,
2013-05-19 14:59:00,82.3,63.5,29.90,ESE,117,3.0,5.0,53,0.00,,,0.00,Wunderground v.1.15,2013-05-19 18:59:00,
2013-05-19 15:05:00,82.0,64.2,29.90,SE,129,3.0,6.0,55,0.00,,,0.00,Wunderground v.1.15,2013-05-19 19:05:00,
2013-05-19 15:10:00,81.4,64.2,29.90,East,90,3.0,3.0,56,0.00,,,0.00,Wunderground v.1.15,2013-05-19 19:10:00,
2013-05-19 15:18:00,80.9,63.7,29.90,East,89,2.0,6.0,56,0.00,,,0.00,Wunderground v.1.15,2013-05-19 19:18:00,
2013-05-19 15:24:00,81.5,64.3,29.90,SE,127,3.0,3.0,56,0.00,,,0.00,Wunderground v.1.15,2013-05-19 19:24:00,
2013-05-19 15:30:00,81.7,65.0,29.90,NNE,15,3.0,3.0,57,0.00,,,0.00,Wunderground v.1.15,2013-05-19 19:30:00,
2013-05-19 15:36:00,82.6,64.3,29.91,WSW,252,3.0,4.0,54,0.00,,,0.00,Wunderground v.1.15,2013-05-19 19:36:00,
2013-05-19 15:42:00,82.4,64.1,29.91,SSE,163,3.0,3.0,54,0.00,,,0.00,Wunderground v.1.15,2013-05-19 19:42:00,
2013-05-19 15:48:00,82.1,63.8,29.91,SSW,199,2.0,2.0,54,0.00,,,0.00,Wunderground v.1.15,2013-05-19 19:48:00,
2013-05-19 15:53:00,82.0,64.8,29.91,South,187,2.0,3.0,56,0.00,,,0.00,Wunderground v.1.15,2013-05-19 19:53:00,
2013-05-19 15:59:00,81.1,63.9,29.91,ESE,118,3.0,8.0,56,0.00,,,0.00,Wunderground v.1.15,2013-05-19 19:59:00,
2013-05-19 16:05:00,80.6,64.0,29.91,WNW,285,4.0,8.0,57,0.00,,,0.00,Wunderground v.1.15,2013-05-19 20:05:00,
2013-05-19 16:10:00,80.7,64.1,29.90,SSE,153,4.0,4.0,57,0.00,,,0.00,Wunderground v.1.15,2013-05-19 20:10:00,
2013-05-19 16:15:00,81.4,64.7,29.91,ESE,111,3.0,4.0,57,0.00,,,0.00,Wunderground v.1.15,2013-05-19 20:15:00,
2013-05-19 16:20:00,81.4,64.7,29.91,East,87,3.0,4.0,57,0.00,,,0.00,Wunderground v.1.15,2013-05-19 20:20:00,
2013-05-19 16:25:00,81.1,64.4,29.91,West,270,4.0,11.0,57,0.00,,,0.00,Wunderground v.1.15,2013-05-19 20:25:00,
2013-05-19 16:31:00,81.3,64.1,29.91,SSW,194,3.0,4.0,56,0.00,,,0.00,Wunderground v.1.15,2013-05-19 20:31:00,
2013-05-19 16:37:00,81.2,64.5,29.91,South,191,2.0,4.0,57,0.00,,,0.00,Wunderground v.1.15,2013-05-19 20:37:00,
2013-05-19 16:43:00,81.1,63.9,29.91,ESE,106,2.0,3.0,56,0.00,,,0.00,Wunderground v.1.15,2013-05-19 20:43:00,
2013-05-19 16:49:00,81.0,63.8,29.91,West,273,3.0,3.0,56,0.00,,,0.00,Wunderground v.1.15,2013-05-19 20:49:00,
2013-05-19 16:55:00,81.0,63.8,29.91,SE,127,2.0,5.0,56,0.00,,,0.00,Wunderground v.1.15,2013-05-19 20:55:00,
2013-05-19 17:01:00,80.8,63.6,29.91,South,174,2.0,2.0,56,0.00,,,0.00,Wunderground v.1.15,2013-05-19 21:01:00,
2013-05-19 17:06:00,81.1,64.4,29.91,SSW,206,2.0,3.0,57,0.00,,,0.00,Wunderground v.1.15,2013-05-19 21:06:00,
2013-05-19 17:11:00,81.2,64.5,29.90,South,188,2.0,3.0,57,0.00,,,0.00,Wunderground v.1.15,2013-05-19 21:11:00,
2013-05-19 17:17:00,81.3,64.1,29.90,ESE,113,2.0,2.0,56,0.00,,,0.00,Wunderground v.1.15,2013-05-19 21:17:00,
2013-05-19 17:23:00,81.0,64.3,29.90,SSE,155,2.0,3.0,57,0.00,,,0.00,Wunderground v.1.15,2013-05-19 21:23:00,
2013-05-19 17:29:00,81.1,64.4,29.90,SSW,198,2.0,3.0,57,0.00,,,0.00,Wunderground v.1.15,2013-05-19 21:29:00,
2013-05-19 17:35:00,81.5,64.3,29.90,SE,124,2.0,3.0,56,0.00,,,0.00,Wunderground v.1.15,2013-05-19 21:35:00,
2013-05-19 17:41:00,81.2,64.5,29.90,ESE,118,1.0,3.0,57,0.00,,,0.00,Wunderground v.1.15,2013-05-19 21:41:00,
2013-05-19 17:46:00,81.2,64.0,29.90,ESE,112,2.0,4.0,56,0.00,,,0.00,Wunderground v.1.15,2013-05-19 21:46:00,
2013-05-19 17:51:00,81.3,64.1,29.89,SSW,211,3.0,5.0,56,0.00,,,0.00,Wunderground v.1.15,2013-05-19 21:51:00,
2013-05-19 17:58:00,81.5,64.3,29.89,ENE,78,2.0,2.0,56,0.00,,,0.00,Wunderground v.1.15,2013-05-19 21:58:00,
2013-05-19 18:03:00,82.0,64.2,29.89,SE,144,2.0,6.0,55,0.00,,,0.00,Wunderground v.1.15,2013-05-19 22:03:00,
2013-05-19 18:08:00,81.8,64.1,29.89,South,170,3.0,5.0,55,0.00,,,0.00,Wunderground v.1.15,2013-05-19 22:08:00,
2013-05-19 18:14:00,81.9,64.1,29.89,SE,137,3.0,7.0,55,0.00,,,0.00,Wunderground v.1.15,2013-05-19 22:14:00,
2013-05-19 18:20:00,82.1,64.3,29.89,SSW,200,3.0,4.0,55,0.00,,,0.00,Wunderground v.1.15,2013-05-19 22:20:00,
2013-05-19 18:25:00,81.6,63.9,29.88,ESE,104,3.0,8.0,55,0.00,,,0.00,Wunderground v.1.15,2013-05-19 22:25:00,
2013-05-19 18:30:00,81.2,64.5,29.88,South,174,3.0,3.0,57,0.00,,,0.00,Wunderground v.1.15,2013-05-19 22:30:00,
2013-05-19 18:37:00,81.7,64.0,29.89,SSE,156,3.0,5.0,55,0.00,,,0.00,Wunderground v.1.15,2013-05-19 22:37:00,
2013-05-19 18:42:00,81.8,64.6,29.89,ESE,104,3.0,4.0,56,0.00,,,0.00,Wunderground v.1.15,2013-05-19 22:42:00,
2013-05-19 18:48:00,81.3,64.6,29.88,SE,135,3.0,4.0,57,0.00,,,0.00,Wunderground v.1.15,2013-05-19 22:48:00,
2013-05-19 18:54:00,81.2,64.0,29.88,ESE,115,3.0,5.0,56,0.00,,,0.00,Wunderground v.1.15,2013-05-19 22:54:00,
2013-05-19 18:59:00,80.5,63.9,29.89,SSE,150,3.0,3.0,57,0.00,,,0.00,Wunderground v.1.15,2013-05-19 22:59:00,
2013-05-19 19:04:00,79.9,64.3,29.89,East,99,3.0,3.0,59,0.00,,,0.00,Wunderground v.1.15,2013-05-19 23:04:00,
2013-05-19 19:10:00,79.5,63.9,29.88,SE,124,2.0,3.0,59,0.00,,,0.00,Wunderground v.1.15,2013-05-19 23:10:00,
2013-05-19 19:17:00,79.7,64.1,29.88,ESE,109,2.0,3.0,59,0.00,,,0.00,Wunderground v.1.15,2013-05-19 23:17:00,
2013-05-19 19:22:00,79.8,63.7,29.88,SE,141,3.0,5.0,58,0.00,,,0.00,Wunderground v.1.15,2013-05-19 23:22:00,
2013-05-19 19:28:00,79.9,64.3,29.88,SE,130,3.0,4.0,59,0.00,,,0.00,Wunderground v.1.15,2013-05-19 23:28:00,
2013-05-19 19:34:00,79.6,64.0,29.89,SE,144,3.0,6.0,59,0.00,,,0.00,Wunderground v.1.15,2013-05-19 23:34:00,
2013-05-19 19:39:00,79.5,63.9,29.89,SSE,167,3.0,3.0,59,0.00,,,0.00,Wunderground v.1.15,2013-05-19 23:39:00,
2013-05-19 19:45:00,79.1,63.5,29.89,SE,143,3.0,4.0,59,0.00,,,0.00,Wunderground v.1.15,2013-05-19 23:45:00,
2013-05-19 19:51:00,79.0,63.4,29.89,ESE,102,3.0,4.0,59,0.00,,,0.00,Wunderground v.1.15,2013-05-19 23:51:00,
2013-05-19 19:57:00,78.9,63.8,29.89,SW,222,2.0,2.0,60,0.00,,,0.00,Wunderground v.1.15,2013-05-19 23:57:00,
2013-05-19 20:03:00,78.7,63.6,29.89,SE,146,2.0,4.0,60,0.00,,,0.00,Wunderground v.1.15,2013-05-20 00:03:00,
2013-05-19 20:08:00,78.5,63.9,29.90,SSE,151,2.0,4.0,61,0.00,,,0.00,Wunderground v.1.15,2013-05-20 00:08:00,
2013-05-19 20:13:00,78.3,63.7,29.90,SSE,151,2.0,4.0,61,0.00,,,0.00,Wunderground v.1.15,2013-05-20 00:13:00,
2013-05-19 20:19:00,77.7,63.6,29.90,ESE,111,2.0,3.0,62,0.00,,,0.00,Wunderground v.1.15,2013-05-20 00:19:00,
2013-05-19 20:25:00,77.2,63.6,29.90,SE,124,2.0,3.0,63,0.00,,,0.00,Wunderground v.1.15,2013-05-20 00:25:00,
2013-05-19 20:31:00,76.7,63.6,29.90,East,98,2.0,4.0,64,0.00,,,0.00,Wunderground v.1.15,2013-05-20 00:31:00,
2013-05-19 20:37:00,76.3,63.7,29.90,South,174,2.0,4.0,65,0.00,,,0.00,Wunderground v.1.15,2013-05-20 00:37:00,
2013-05-19 20:42:00,75.9,63.7,29.90,SE,137,1.0,2.0,66,0.00,,,0.00,Wunderground v.1.15,2013-05-20 00:42:00,
2013-05-19 20:48:00,75.4,63.7,29.91,SE,132,1.0,1.0,67,0.00,,,0.00,Wunderground v.1.15,2013-05-20 00:48:00,
2013-05-19 20:53:00,75.0,63.7,29.91,SSE,163,0.0,1.0,68,0.00,,,0.00,Wunderground v.1.15,2013-05-20 00:53:00,
2013-05-19 20:59:00,74.5,63.7,29.91,SSE,156,0.0,2.0,69,0.00,,,0.00,Wunderground v.1.15,2013-05-20 00:59:00,
2013-05-19 21:05:00,74.3,63.9,29.92,SE,137,2.0,4.0,70,0.00,,,0.00,Wunderground v.1.15,2013-05-20 01:05:00,
2013-05-19 21:10:00,74.3,63.9,29.92,SE,127,3.0,8.0,70,0.00,,,0.00,Wunderground v.1.15,2013-05-20 01:10:00,
2013-05-19 21:15:00,74.4,64.0,29.91,SSE,158,3.0,8.0,70,0.00,,,0.00,Wunderground v.1.15,2013-05-20 01:15:00,
2013-05-19 21:20:00,74.3,63.9,29.91,East,84,3.0,5.0,70,0.00,,,0.00,Wunderground v.1.15,2013-05-20 01:20:00,
2013-05-19 21:26:00,74.1,63.7,29.92,SE,139,3.0,5.0,70,0.00,,,0.00,Wunderground v.1.15,2013-05-20 01:26:00,
2013-05-19 21:33:00,74.0,63.6,29.92,SE,125,3.0,4.0,70,0.00,,,0.00,Wunderground v.1.15,2013-05-20 01:33:00,
2013-05-19 21:39:00,73.8,63.8,29.92,ESE,111,3.0,3.0,71,0.00,,,0.00,Wunderground v.1.15,2013-05-20 01:39:00,
2013-05-19 21:44:00,73.7,63.7,29.92,ESE,122,2.0,4.0,71,0.00,,,0.00,Wunderground v.1.15,2013-05-20 01:44:00,
2013-05-19 21:49:00,73.5,63.9,29.92,SSE,155,3.0,3.0,72,0.00,,,0.00,Wunderground v.1.15,2013-05-20 01:49:00,
2013-05-19 21:55:00,73.4,63.8,29.92,ESE,114,3.0,7.0,72,0.00,,,0.00,Wunderground v.1.15,2013-05-20 01:55:00,
2013-05-19 22:00:00,73.2,64.0,29.92,South,180,4.0,7.0,73,0.00,,,0.00,Wunderground v.1.15,2013-05-20 02:00:00,
2013-05-19 22:05:00,73.2,64.0,29.93,ESE,104,4.0,7.0,73,0.00,,,0.00,Wunderground v.1.15,2013-05-20 02:05:00,
2013-05-19 22:11:00,73.0,63.8,29.92,SE,131,4.0,7.0,73,0.00,,,0.00,Wunderground v.1.15,2013-05-20 02:11:00,
2013-05-19 22:17:00,72.9,64.1,29.93,East,94,3.0,7.0,74,0.00,,,0.00,Wunderground v.1.15,2013-05-20 02:17:00,
2013-05-19 22:23:00,72.7,63.9,29.93,SE,134,3.0,4.0,74,0.00,,,0.00,Wunderground v.1.15,2013-05-20 02:23:00,
2013-05-19 22:28:00,72.5,63.7,29.93,SE,134,2.0,4.0,74,0.00,,,0.00,Wunderground v.1.15,2013-05-20 02:28:00,
2013-05-19 22:33:00,72.4,64.0,29.92,ESE,104,2.0,4.0,75,0.00,,,0.00,Wunderground v.1.15,2013-05-20 02:33:00,
2013-05-19 22:39:00,72.2,63.8,29.92,ESE,107,2.0,2.0,75,0.00,,,0.00,Wunderground v.1.15,2013-05-20 02:39:00,
2013-05-19 22:44:00,72.0,63.6,29.92,ESE,122,3.0,6.0,75,0.00,,,0.00,Wunderground v.1.15,2013-05-20 02:44:00,
2013-05-19 22:49:00,71.9,63.9,29.92,East,80,3.0,5.0,76,0.00,,,0.00,Wunderground v.1.15,2013-05-20 02:49:00,
2013-05-19 22:54:00,71.7,63.7,29.92,ESE,115,3.0,7.0,76,0.00,,,0.00,Wunderground v.1.15,2013-05-20 02:54:00,
2013-05-19 22:59:00,71.6,63.6,29.92,SE,141,3.0,6.0,76,0.00,,,0.00,Wunderground v.1.15,2013-05-20 02:59:00,
2013-05-19 23:05:00,71.6,63.6,29.91,ESE,119,4.0,7.0,76,0.00,,,0.00,Wunderground v.1.15,2013-05-20 03:05:00,
2013-05-19 23:10:00,71.4,63.8,29.91,ESE,117,4.0,4.0,77,0.00,,,0.00,Wunderground v.1.15,2013-05-20 03:10:00,
2013-05-19 23:16:00,71.3,63.7,29.92,ESE,118,3.0,6.0,77,0.00,,,0.00,Wunderground v.1.15,2013-05-20 03:16:00,
2013-05-19 23:20:00,71.1,63.5,29.91,SE,135,2.0,4.0,77,0.00,,,0.00,Wunderground v.1.15,2013-05-20 03:20:00,
2013-05-19 23:26:00,71.0,63.4,29.91,East,98,3.0,8.0,77,0.00,,,0.00,Wunderground v.1.15,2013-05-20 03:26:00,
2013-05-19 23:32:00,70.9,63.7,29.91,SSW,192,3.0,4.0,78,0.00,,,0.00,Wunderground v.1.15,2013-05-20 03:32:00,
2013-05-19 23:39:00,70.8,63.6,29.91,SE,145,3.0,5.0,78,0.00,,,0.00,Wunderground v.1.15,2013-05-20 03:39:00,
2013-05-19 23:44:00,70.7,63.5,29.91,ESE,110,3.0,5.0,78,0.00,,,0.00,Wunderground v.1.15,2013-05-20 03:44:00,
2013-05-19 23:50:00,70.5,63.3,29.91,SE,138,2.0,3.0,78,0.00,,,0.00,Wunderground v.1.15,2013-05-20 03:50:00,
2013-05-19 23:55:00,70.4,63.6,29.91,SE,127,2.0,7.0,79,0.00,,,0.00,Wunderground v.1.15,2013-05-20 03:55:00,